sensor_id;sensor_type;location;lat;lon;timestamp;P1;durP1;ratioP1;P2;durP2;ratioP2
5153;SDS011;2595;53.584;10.084;2023-03-23T00:02:19;6.33;;;5.73;;
5153;SDS011;2595;53.584;10.084;2023-03-23T00:04:51;6.20;;;5.90;;
5153;SDS011;2595;53.584;10.084;2023-03-23T00:07:18;6.30;;;5.80;;
5153;SDS011;2595;53.584;10.084;2023-03-23T00:09:48;6.67;;;6.10;;
5153;SDS011;2595;53.584;10.084;2023-03-23T00:12:26;7.60;;;6.03;;
5153;SDS011;2595;53.584;10.084;2023-03-23T00:15:02;9.57;;;6.50;;
5153;SDS011;2595;53.584;10.084;2023-03-23T00:17:30;8.00;;;7.30;;
5153;SDS011;2595;53.584;10.084;2023-03-23T00:19:59;6.90;;;6.30;;
5153;SDS011;2595;53.584;10.084;2023-03-23T00:22:26;8.67;;;6.53;;
5153;SDS011;2595;53.584;10.084;2023-03-23T00:24:53;7.30;;;6.90;;
5153;SDS011;2595;53.584;10.084;2023-03-23T00:27:19;8.77;;;8.07;;
5153;SDS011;2595;53.584;10.084;2023-03-23T00:29:49;7.87;;;7.13;;
5153;SDS011;2595;53.584;10.084;2023-03-23T00:32:22;8.03;;;7.47;;
5153;SDS011;2595;53.584;10.084;2023-03-23T00:34:55;8.50;;;7.90;;
5153;SDS011;2595;53.584;10.084;2023-03-23T00:37:23;8.03;;;7.43;;
5153;SDS011;2595;53.584;10.084;2023-03-23T00:39:49;8.50;;;7.70;;
5153;SDS011;2595;53.584;10.084;2023-03-23T00:42:16;9.17;;;8.50;;
5153;SDS011;2595;53.584;10.084;2023-03-23T00:44:42;9.93;;;9.20;;
5153;SDS011;2595;53.584;10.084;2023-03-23T00:47:08;8.87;;;8.20;;
5153;SDS011;2595;53.584;10.084;2023-03-23T00:49:35;9.27;;;8.27;;
5153;SDS011;2595;53.584;10.084;2023-03-23T00:52:02;10.50;;;9.80;;
5153;SDS011;2595;53.584;10.084;2023-03-23T00:54:28;9.40;;;8.63;;
5153;SDS011;2595;53.584;10.084;2023-03-23T00:56:54;9.40;;;8.77;;
5153;SDS011;2595;53.584;10.084;2023-03-23T00:59:20;10.47;;;9.57;;
5153;SDS011;2595;53.584;10.084;2023-03-23T01:01:47;10.03;;;9.33;;
5153;SDS011;2595;53.584;10.084;2023-03-23T01:04:13;10.63;;;9.73;;
5153;SDS011;2595;53.584;10.084;2023-03-23T01:06:40;10.17;;;9.53;;
5153;SDS011;2595;53.584;10.084;2023-03-23T01:09:08;10.07;;;8.97;;
5153;SDS011;2595;53.584;10.084;2023-03-23T01:11:36;8.97;;;8.37;;
5153;SDS011;2595;53.584;10.084;2023-03-23T01:14:03;11.03;;;9.90;;
5153;SDS011;2595;53.584;10.084;2023-03-23T01:16:30;9.27;;;8.67;;
5153;SDS011;2595;53.584;10.084;2023-03-23T01:18:55;10.73;;;9.80;;
5153;SDS011;2595;53.584;10.084;2023-03-23T01:21:21;11.10;;;10.30;;
5153;SDS011;2595;53.584;10.084;2023-03-23T01:23:47;11.77;;;10.77;;
5153;SDS011;2595;53.584;10.084;2023-03-23T01:26:14;11.30;;;10.30;;
5153;SDS011;2595;53.584;10.084;2023-03-23T01:28:43;10.47;;;9.77;;
5153;SDS011;2595;53.584;10.084;2023-03-23T01:31:13;10.97;;;10.17;;
5153;SDS011;2595;53.584;10.084;2023-03-23T01:33:40;10.63;;;9.67;;
5153;SDS011;2595;53.584;10.084;2023-03-23T01:36:08;10.40;;;9.77;;
5153;SDS011;2595;53.584;10.084;2023-03-23T01:38:36;10.70;;;9.80;;
5153;SDS011;2595;53.584;10.084;2023-03-23T01:41:02;12.20;;;11.00;;
5153;SDS011;2595;53.584;10.084;2023-03-23T01:43:28;12.13;;;10.93;;
5153;SDS011;2595;53.584;10.084;2023-03-23T01:45:54;12.20;;;11.07;;
5153;SDS011;2595;53.584;10.084;2023-03-23T01:48:22;11.20;;;10.03;;
5153;SDS011;2595;53.584;10.084;2023-03-23T01:53:35;13.70;;;11.80;;
5153;SDS011;2595;53.584;10.084;2023-03-23T01:56:03;11.87;;;10.57;;
5153;SDS011;2595;53.584;10.084;2023-03-23T01:58:31;12.37;;;11.20;;
5153;SDS011;2595;53.584;10.084;2023-03-23T02:01:00;11.40;;;10.20;;
5153;SDS011;2595;53.584;10.084;2023-03-23T02:03:29;10.23;;;9.53;;
5153;SDS011;2595;53.584;10.084;2023-03-23T02:05:56;11.60;;;10.40;;
5153;SDS011;2595;53.584;10.084;2023-03-23T02:08:27;12.13;;;9.37;;
5153;SDS011;2595;53.584;10.084;2023-03-23T02:10:54;12.83;;;10.93;;
5153;SDS011;2595;53.584;10.084;2023-03-23T02:13:20;12.70;;;11.53;;
5153;SDS011;2595;53.584;10.084;2023-03-23T02:27:35;11.00;;;9.90;;
5153;SDS011;2595;53.584;10.084;2023-03-23T02:30:11;11.30;;;10.10;;
5153;SDS011;2595;53.584;10.084;2023-03-23T02:35:24;11.90;;;10.47;;
5153;SDS011;2595;53.584;10.084;2023-03-23T02:38:00;10.83;;;9.83;;
5153;SDS011;2595;53.584;10.084;2023-03-23T02:40:37;9.70;;;8.93;;
5153;SDS011;2595;53.584;10.084;2023-03-23T02:43:15;10.90;;;10.00;;
5153;SDS011;2595;53.584;10.084;2023-03-23T02:45:44;10.10;;;9.27;;
5153;SDS011;2595;53.584;10.084;2023-03-23T02:48:11;10.87;;;9.80;;
5153;SDS011;2595;53.584;10.084;2023-03-23T02:50:43;10.00;;;9.10;;
5153;SDS011;2595;53.584;10.084;2023-03-23T02:53:13;9.67;;;8.83;;
5153;SDS011;2595;53.584;10.084;2023-03-23T02:55:42;10.20;;;9.40;;
5153;SDS011;2595;53.584;10.084;2023-03-23T02:58:09;10.00;;;9.30;;
5153;SDS011;2595;53.584;10.084;2023-03-23T03:00:36;9.30;;;8.47;;
5153;SDS011;2595;53.584;10.084;2023-03-23T03:03:02;9.00;;;8.50;;
5153;SDS011;2595;53.584;10.084;2023-03-23T03:08:36;10.03;;;9.20;;
5153;SDS011;2595;53.584;10.084;2023-03-23T03:11:22;8.50;;;8.00;;
5153;SDS011;2595;53.584;10.084;2023-03-23T03:13:54;9.47;;;8.77;;
5153;SDS011;2595;53.584;10.084;2023-03-23T03:16:33;9.27;;;8.67;;
5153;SDS011;2595;53.584;10.084;2023-03-23T03:21:44;10.07;;;9.33;;
5153;SDS011;2595;53.584;10.084;2023-03-23T03:24:12;10.33;;;9.70;;
5153;SDS011;2595;53.584;10.084;2023-03-23T03:26:41;10.20;;;9.50;;
5153;SDS011;2595;53.584;10.084;2023-03-23T03:29:13;10.23;;;9.40;;
5153;SDS011;2595;53.584;10.084;2023-03-23T03:31:42;10.23;;;9.37;;
5153;SDS011;2595;53.584;10.084;2023-03-23T03:34:10;10.57;;;9.87;;
5153;SDS011;2595;53.584;10.084;2023-03-23T03:36:37;11.40;;;10.40;;
5153;SDS011;2595;53.584;10.084;2023-03-23T03:39:06;11.10;;;10.00;;
5153;SDS011;2595;53.584;10.084;2023-03-23T03:41:34;12.20;;;11.10;;
5153;SDS011;2595;53.584;10.084;2023-03-23T03:44:00;10.07;;;9.37;;
5153;SDS011;2595;53.584;10.084;2023-03-23T03:46:26;12.63;;;10.53;;
5153;SDS011;2595;53.584;10.084;2023-03-23T03:48:54;10.13;;;9.40;;
5153;SDS011;2595;53.584;10.084;2023-03-23T03:51:21;9.93;;;9.23;;
5153;SDS011;2595;53.584;10.084;2023-03-23T03:53:47;11.70;;;10.70;;
5153;SDS011;2595;53.584;10.084;2023-03-23T03:56:13;12.37;;;10.40;;
5153;SDS011;2595;53.584;10.084;2023-03-23T03:58:39;10.33;;;9.57;;
5153;SDS011;2595;53.584;10.084;2023-03-23T04:01:07;10.67;;;9.97;;
5153;SDS011;2595;53.584;10.084;2023-03-23T04:03:35;10.87;;;9.97;;
5153;SDS011;2595;53.584;10.084;2023-03-23T04:06:01;10.77;;;9.87;;
5153;SDS011;2595;53.584;10.084;2023-03-23T04:08:27;12.00;;;10.80;;
5153;SDS011;2595;53.584;10.084;2023-03-23T04:10:53;15.53;;;13.90;;
5153;SDS011;2595;53.584;10.084;2023-03-23T04:13:19;11.67;;;10.70;;
5153;SDS011;2595;53.584;10.084;2023-03-23T04:15:46;15.10;;;11.30;;
5153;SDS011;2595;53.584;10.084;2023-03-23T04:18:12;10.80;;;9.87;;
5153;SDS011;2595;53.584;10.084;2023-03-23T04:20:40;11.67;;;10.53;;
5153;SDS011;2595;53.584;10.084;2023-03-23T04:23:07;10.07;;;9.47;;
5153;SDS011;2595;53.584;10.084;2023-03-23T04:25:33;11.00;;;10.20;;
5153;SDS011;2595;53.584;10.084;2023-03-23T04:27:59;11.67;;;10.73;;
5153;SDS011;2595;53.584;10.084;2023-03-23T04:30:26;11.27;;;10.17;;
5153;SDS011;2595;53.584;10.084;2023-03-23T04:32:54;10.63;;;9.80;;
5153;SDS011;2595;53.584;10.084;2023-03-23T04:35:21;11.67;;;10.67;;
5153;SDS011;2595;53.584;10.084;2023-03-23T04:37:49;10.17;;;9.47;;
5153;SDS011;2595;53.584;10.084;2023-03-23T04:40:15;10.70;;;10.10;;
5153;SDS011;2595;53.584;10.084;2023-03-23T04:42:42;11.03;;;10.13;;
5153;SDS011;2595;53.584;10.084;2023-03-23T04:45:15;12.20;;;10.80;;
5153;SDS011;2595;53.584;10.084;2023-03-23T04:47:49;11.73;;;10.53;;
5153;SDS011;2595;53.584;10.084;2023-03-23T04:50:22;10.67;;;9.77;;
5153;SDS011;2595;53.584;10.084;2023-03-23T04:52:49;10.90;;;10.00;;
5153;SDS011;2595;53.584;10.084;2023-03-23T04:55:16;10.67;;;9.67;;
5153;SDS011;2595;53.584;10.084;2023-03-23T04:57:44;10.90;;;10.00;;
5153;SDS011;2595;53.584;10.084;2023-03-23T05:00:10;11.50;;;10.60;;
5153;SDS011;2595;53.584;10.084;2023-03-23T05:02:43;12.77;;;10.63;;
5153;SDS011;2595;53.584;10.084;2023-03-23T05:05:12;11.47;;;10.53;;
5153;SDS011;2595;53.584;10.084;2023-03-23T05:07:38;9.80;;;9.00;;
5153;SDS011;2595;53.584;10.084;2023-03-23T05:10:04;12.07;;;10.87;;
5153;SDS011;2595;53.584;10.084;2023-03-23T05:12:31;10.27;;;9.37;;
5153;SDS011;2595;53.584;10.084;2023-03-23T05:14:56;11.17;;;10.07;;
5153;SDS011;2595;53.584;10.084;2023-03-23T05:17:22;10.23;;;9.63;;
5153;SDS011;2595;53.584;10.084;2023-03-23T05:19:49;9.33;;;8.83;;
5153;SDS011;2595;53.584;10.084;2023-03-23T05:22:15;11.13;;;10.30;;
5153;SDS011;2595;53.584;10.084;2023-03-23T05:24:42;10.60;;;9.70;;
5153;SDS011;2595;53.584;10.084;2023-03-23T05:27:08;11.90;;;9.50;;
5153;SDS011;2595;53.584;10.084;2023-03-23T05:29:34;10.27;;;9.50;;
5153;SDS011;2595;53.584;10.084;2023-03-23T05:32:04;10.63;;;9.87;;
5153;SDS011;2595;53.584;10.084;2023-03-23T05:34:30;9.83;;;9.20;;
5153;SDS011;2595;53.584;10.084;2023-03-23T05:36:59;9.87;;;9.30;;
5153;SDS011;2595;53.584;10.084;2023-03-23T05:39:29;9.87;;;9.10;;
5153;SDS011;2595;53.584;10.084;2023-03-23T05:41:56;9.80;;;9.10;;
5153;SDS011;2595;53.584;10.084;2023-03-23T05:44:21;9.77;;;8.80;;
5153;SDS011;2595;53.584;10.084;2023-03-23T05:46:48;8.87;;;8.33;;
5153;SDS011;2595;53.584;10.084;2023-03-23T05:49:15;9.73;;;9.13;;
5153;SDS011;2595;53.584;10.084;2023-03-23T05:51:41;9.03;;;8.43;;
5153;SDS011;2595;53.584;10.084;2023-03-23T05:54:09;9.10;;;8.53;;
5153;SDS011;2595;53.584;10.084;2023-03-23T05:56:35;8.00;;;7.40;;
5153;SDS011;2595;53.584;10.084;2023-03-23T05:59:01;7.03;;;6.53;;
5153;SDS011;2595;53.584;10.084;2023-03-23T06:01:27;12.67;;;8.77;;
5153;SDS011;2595;53.584;10.084;2023-03-23T06:03:53;8.10;;;7.40;;
5153;SDS011;2595;53.584;10.084;2023-03-23T06:06:24;7.40;;;6.90;;
5153;SDS011;2595;53.584;10.084;2023-03-23T06:08:50;7.03;;;6.43;;
5153;SDS011;2595;53.584;10.084;2023-03-23T06:11:16;6.30;;;5.90;;
5153;SDS011;2595;53.584;10.084;2023-03-23T06:13:42;6.77;;;6.27;;
5153;SDS011;2595;53.584;10.084;2023-03-23T06:16:08;6.67;;;6.07;;
5153;SDS011;2595;53.584;10.084;2023-03-23T06:18:34;7.93;;;7.10;;
5153;SDS011;2595;53.584;10.084;2023-03-23T06:21:02;5.90;;;5.50;;
5153;SDS011;2595;53.584;10.084;2023-03-23T06:23:28;7.13;;;6.40;;
5153;SDS011;2595;53.584;10.084;2023-03-23T06:25:55;7.13;;;6.43;;
5153;SDS011;2595;53.584;10.084;2023-03-23T06:28:24;6.60;;;6.00;;
5153;SDS011;2595;53.584;10.084;2023-03-23T06:30:50;6.60;;;6.20;;
5153;SDS011;2595;53.584;10.084;2023-03-23T06:33:15;6.30;;;5.97;;
5153;SDS011;2595;53.584;10.084;2023-03-23T06:35:42;8.50;;;5.90;;
5153;SDS011;2595;53.584;10.084;2023-03-23T06:38:08;6.80;;;6.33;;
5153;SDS011;2595;53.584;10.084;2023-03-23T06:40:33;4.97;;;4.67;;
5153;SDS011;2595;53.584;10.084;2023-03-23T06:43:01;6.20;;;5.60;;
5153;SDS011;2595;53.584;10.084;2023-03-23T06:45:28;6.50;;;6.10;;
5153;SDS011;2595;53.584;10.084;2023-03-23T06:47:55;5.97;;;5.57;;
5153;SDS011;2595;53.584;10.084;2023-03-23T06:50:20;5.77;;;5.37;;
5153;SDS011;2595;53.584;10.084;2023-03-23T06:52:47;5.50;;;5.20;;
5153;SDS011;2595;53.584;10.084;2023-03-23T06:55:14;4.87;;;4.57;;
5153;SDS011;2595;53.584;10.084;2023-03-23T06:57:40;5.23;;;4.93;;
5153;SDS011;2595;53.584;10.084;2023-03-23T07:00:07;6.03;;;5.60;;
5153;SDS011;2595;53.584;10.084;2023-03-23T07:02:36;9.70;;;4.57;;
5153;SDS011;2595;53.584;10.084;2023-03-23T07:05:01;5.37;;;4.97;;
5153;SDS011;2595;53.584;10.084;2023-03-23T07:07:28;5.50;;;5.20;;
5153;SDS011;2595;53.584;10.084;2023-03-23T07:09:54;5.40;;;4.90;;
5153;SDS011;2595;53.584;10.084;2023-03-23T07:12:20;5.00;;;4.60;;
5153;SDS011;2595;53.584;10.084;2023-03-23T07:14:46;10.70;;;5.00;;
5153;SDS011;2595;53.584;10.084;2023-03-23T07:17:12;7.03;;;4.80;;
5153;SDS011;2595;53.584;10.084;2023-03-23T07:19:38;4.87;;;4.57;;
5153;SDS011;2595;53.584;10.084;2023-03-23T07:22:04;3.80;;;3.60;;
5153;SDS011;2595;53.584;10.084;2023-03-23T07:24:31;5.03;;;4.73;;
5153;SDS011;2595;53.584;10.084;2023-03-23T07:26:58;7.77;;;4.73;;
5153;SDS011;2595;53.584;10.084;2023-03-23T07:29:24;4.33;;;4.03;;
5153;SDS011;2595;53.584;10.084;2023-03-23T07:31:49;4.60;;;4.40;;
5153;SDS011;2595;53.584;10.084;2023-03-23T07:34:16;5.13;;;4.50;;
5153;SDS011;2595;53.584;10.084;2023-03-23T07:36:42;6.10;;;4.97;;
5153;SDS011;2595;53.584;10.084;2023-03-23T07:39:08;8.20;;;5.03;;
5153;SDS011;2595;53.584;10.084;2023-03-23T07:41:34;5.27;;;4.87;;
5153;SDS011;2595;53.584;10.084;2023-03-23T07:44:00;5.20;;;4.80;;
5153;SDS011;2595;53.584;10.084;2023-03-23T07:46:26;4.40;;;4.10;;
5153;SDS011;2595;53.584;10.084;2023-03-23T07:48:51;5.20;;;4.80;;
5153;SDS011;2595;53.584;10.084;2023-03-23T07:51:18;5.10;;;4.70;;
5153;SDS011;2595;53.584;10.084;2023-03-23T07:53:43;5.13;;;4.50;;
5153;SDS011;2595;53.584;10.084;2023-03-23T07:56:12;5.23;;;4.13;;
5153;SDS011;2595;53.584;10.084;2023-03-23T07:58:40;5.00;;;4.70;;
5153;SDS011;2595;53.584;10.084;2023-03-23T08:01:06;6.03;;;4.10;;
5153;SDS011;2595;53.584;10.084;2023-03-23T08:03:32;4.73;;;4.53;;
5153;SDS011;2595;53.584;10.084;2023-03-23T08:05:59;4.93;;;4.67;;
5153;SDS011;2595;53.584;10.084;2023-03-23T08:08:25;5.60;;;4.70;;
5153;SDS011;2595;53.584;10.084;2023-03-23T08:10:51;5.40;;;4.97;;
5153;SDS011;2595;53.584;10.084;2023-03-23T08:13:17;5.63;;;5.23;;
5153;SDS011;2595;53.584;10.084;2023-03-23T08:15:43;5.80;;;5.13;;
5153;SDS011;2595;53.584;10.084;2023-03-23T08:18:09;4.77;;;4.40;;
5153;SDS011;2595;53.584;10.084;2023-03-23T08:20:35;5.47;;;5.17;;
5153;SDS011;2595;53.584;10.084;2023-03-23T08:23:02;4.87;;;4.60;;
5153;SDS011;2595;53.584;10.084;2023-03-23T08:25:28;5.27;;;4.97;;
5153;SDS011;2595;53.584;10.084;2023-03-23T08:27:56;4.57;;;4.17;;
5153;SDS011;2595;53.584;10.084;2023-03-23T08:30:22;4.33;;;4.13;;
5153;SDS011;2595;53.584;10.084;2023-03-23T08:32:51;5.17;;;4.80;;
5153;SDS011;2595;53.584;10.084;2023-03-23T08:35:18;5.27;;;4.97;;
5153;SDS011;2595;53.584;10.084;2023-03-23T08:37:44;6.80;;;6.40;;
5153;SDS011;2595;53.584;10.084;2023-03-23T08:40:11;5.47;;;5.17;;
5153;SDS011;2595;53.584;10.084;2023-03-23T08:42:39;5.80;;;5.40;;
5153;SDS011;2595;53.584;10.084;2023-03-23T08:45:08;5.30;;;4.90;;
5153;SDS011;2595;53.584;10.084;2023-03-23T08:47:36;4.03;;;3.63;;
5153;SDS011;2595;53.584;10.084;2023-03-23T08:50:04;3.80;;;3.50;;
5153;SDS011;2595;53.584;10.084;2023-03-23T08:52:30;5.07;;;3.17;;
5153;SDS011;2595;53.584;10.084;2023-03-23T08:54:56;2.50;;;2.30;;
5153;SDS011;2595;53.584;10.084;2023-03-23T08:57:22;2.60;;;2.33;;
5153;SDS011;2595;53.584;10.084;2023-03-23T08:59:49;3.60;;;2.97;;
5153;SDS011;2595;53.584;10.084;2023-03-23T09:02:15;3.67;;;2.40;;
5153;SDS011;2595;53.584;10.084;2023-03-23T09:04:41;3.03;;;2.83;;
5153;SDS011;2595;53.584;10.084;2023-03-23T09:07:08;3.10;;;2.90;;
5153;SDS011;2595;53.584;10.084;2023-03-23T09:09:35;3.73;;;3.37;;
5153;SDS011;2595;53.584;10.084;2023-03-23T09:12:02;5.43;;;3.60;;
5153;SDS011;2595;53.584;10.084;2023-03-23T09:14:28;3.37;;;3.17;;
5153;SDS011;2595;53.584;10.084;2023-03-23T09:16:53;3.73;;;3.53;;
5153;SDS011;2595;53.584;10.084;2023-03-23T09:19:19;3.47;;;3.27;;
5153;SDS011;2595;53.584;10.084;2023-03-23T09:21:45;3.60;;;3.30;;
5153;SDS011;2595;53.584;10.084;2023-03-23T09:24:11;7.10;;;3.40;;
5153;SDS011;2595;53.584;10.084;2023-03-23T09:26:37;3.23;;;2.70;;
5153;SDS011;2595;53.584;10.084;2023-03-23T09:29:02;3.23;;;2.70;;
5153;SDS011;2595;53.584;10.084;2023-03-23T09:31:28;3.63;;;2.30;;
5153;SDS011;2595;53.584;10.084;2023-03-23T09:33:56;3.37;;;2.17;;
5153;SDS011;2595;53.584;10.084;2023-03-23T09:36:24;5.87;;;2.47;;
5153;SDS011;2595;53.584;10.084;2023-03-23T09:38:50;5.67;;;2.47;;
5153;SDS011;2595;53.584;10.084;2023-03-23T09:44:07;6.50;;;1.93;;
5153;SDS011;2595;53.584;10.084;2023-03-23T09:49:39;2.50;;;2.30;;
5153;SDS011;2595;53.584;10.084;2023-03-23T09:52:14;7.07;;;2.10;;
5153;SDS011;2595;53.584;10.084;2023-03-23T09:54:45;11.40;;;2.80;;
5153;SDS011;2595;53.584;10.084;2023-03-23T09:59:54;6.67;;;2.33;;
5153;SDS011;2595;53.584;10.084;2023-03-23T10:02:28;192.50;;;31.30;;
5153;SDS011;2595;53.584;10.084;2023-03-23T10:05:07;5.63;;;2.30;;
5153;SDS011;2595;53.584;10.084;2023-03-23T10:07:56;10.83;;;2.37;;
5153;SDS011;2595;53.584;10.084;2023-03-23T10:10:26;4.03;;;1.90;;
5153;SDS011;2595;53.584;10.084;2023-03-23T10:13:07;67.47;;;15.00;;
5153;SDS011;2595;53.584;10.084;2023-03-23T10:15:42;7.07;;;3.43;;
5153;SDS011;2595;53.584;10.084;2023-03-23T10:18:12;4.50;;;2.17;;
5153;SDS011;2595;53.584;10.084;2023-03-23T10:26:10;5.13;;;1.60;;
5153;SDS011;2595;53.584;10.084;2023-03-23T10:28:45;6.20;;;2.30;;
5153;SDS011;2595;53.584;10.084;2023-03-23T10:31:19;97.13;;;10.30;;
5153;SDS011;2595;53.584;10.084;2023-03-23T10:33:49;3.70;;;2.43;;
5153;SDS011;2595;53.584;10.084;2023-03-23T10:36:34;2.23;;;2.00;;
5153;SDS011;2595;53.584;10.084;2023-03-23T10:39:14;9.90;;;2.70;;
5153;SDS011;2595;53.584;10.084;2023-03-23T10:41:44;4.40;;;2.40;;
5153;SDS011;2595;53.584;10.084;2023-03-23T10:44:15;7.50;;;3.40;;
5153;SDS011;2595;53.584;10.084;2023-03-23T10:46:48;57.97;;;7.60;;
5153;SDS011;2595;53.584;10.084;2023-03-23T10:49:24;11.40;;;3.73;;
5153;SDS011;2595;53.584;10.084;2023-03-23T10:54:54;5.67;;;2.13;;
5153;SDS011;2595;53.584;10.084;2023-03-23T10:57:28;3.87;;;3.00;;
5153;SDS011;2595;53.584;10.084;2023-03-23T11:00:39;12.53;;;2.50;;
5153;SDS011;2595;53.584;10.084;2023-03-23T11:05:53;6.70;;;1.90;;
5153;SDS011;2595;53.584;10.084;2023-03-23T11:08:35;4.40;;;2.33;;
5153;SDS011;2595;53.584;10.084;2023-03-23T11:11:11;4.03;;;3.20;;
5153;SDS011;2595;53.584;10.084;2023-03-23T11:13:42;4.60;;;2.53;;
5153;SDS011;2595;53.584;10.084;2023-03-23T11:16:21;3.57;;;2.60;;
5153;SDS011;2595;53.584;10.084;2023-03-23T11:18:58;5.50;;;2.47;;
5153;SDS011;2595;53.584;10.084;2023-03-23T11:21:25;14.27;;;3.13;;
5153;SDS011;2595;53.584;10.084;2023-03-23T11:23:53;11.93;;;4.27;;
5153;SDS011;2595;53.584;10.084;2023-03-23T11:26:26;6.43;;;2.33;;
5153;SDS011;2595;53.584;10.084;2023-03-23T11:28:58;5.17;;;2.70;;
5153;SDS011;2595;53.584;10.084;2023-03-23T11:31:36;6.60;;;2.60;;
5153;SDS011;2595;53.584;10.084;2023-03-23T11:34:52;3.50;;;2.67;;
5153;SDS011;2595;53.584;10.084;2023-03-23T11:39:58;5.13;;;2.47;;
5153;SDS011;2595;53.584;10.084;2023-03-23T11:45:22;6.37;;;3.10;;
5153;SDS011;2595;53.584;10.084;2023-03-23T11:56:24;13.00;;;3.70;;
5153;SDS011;2595;53.584;10.084;2023-03-23T11:58:52;6.00;;;2.90;;
5153;SDS011;2595;53.584;10.084;2023-03-23T12:04:13;4.30;;;3.20;;
5153;SDS011;2595;53.584;10.084;2023-03-23T12:18:18;5.60;;;3.70;;
5153;SDS011;2595;53.584;10.084;2023-03-23T12:23:56;8.00;;;3.57;;
5153;SDS011;2595;53.584;10.084;2023-03-23T12:29:45;4.23;;;3.50;;
5153;SDS011;2595;53.584;10.084;2023-03-23T12:38:02;4.97;;;4.37;;
5153;SDS011;2595;53.584;10.084;2023-03-23T12:46:13;12.17;;;4.17;;
5153;SDS011;2595;53.584;10.084;2023-03-23T12:48:45;8.43;;;3.63;;
5153;SDS011;2595;53.584;10.084;2023-03-23T12:51:36;7.10;;;4.37;;
5153;SDS011;2595;53.584;10.084;2023-03-23T12:57:11;4.33;;;3.93;;
5153;SDS011;2595;53.584;10.084;2023-03-23T13:02:32;6.67;;;4.37;;
5153;SDS011;2595;53.584;10.084;2023-03-23T13:05:06;7.93;;;3.50;;
5153;SDS011;2595;53.584;10.084;2023-03-23T13:07:52;9.83;;;3.90;;
5153;SDS011;2595;53.584;10.084;2023-03-23T13:10:48;9.47;;;4.60;;
5153;SDS011;2595;53.584;10.084;2023-03-23T13:13:16;4.93;;;4.10;;
5153;SDS011;2595;53.584;10.084;2023-03-23T13:16:07;5.27;;;4.60;;
5153;SDS011;2595;53.584;10.084;2023-03-23T13:23:58;6.10;;;3.90;;
5153;SDS011;2595;53.584;10.084;2023-03-23T13:26:31;5.77;;;4.57;;
5153;SDS011;2595;53.584;10.084;2023-03-23T13:28:58;8.13;;;4.20;;
5153;SDS011;2595;53.584;10.084;2023-03-23T13:31:30;5.43;;;4.03;;
5153;SDS011;2595;53.584;10.084;2023-03-23T13:34:04;9.97;;;4.33;;
5153;SDS011;2595;53.584;10.084;2023-03-23T13:36:41;7.10;;;4.40;;
5153;SDS011;2595;53.584;10.084;2023-03-23T13:39:19;3.63;;;3.13;;
5153;SDS011;2595;53.584;10.084;2023-03-23T13:41:58;3.93;;;3.20;;
5153;SDS011;2595;53.584;10.084;2023-03-23T14:10:36;1.50;;;1.40;;
5153;SDS011;2595;53.584;10.084;2023-03-23T14:16:24;2.10;;;1.40;;
5153;SDS011;2595;53.584;10.084;2023-03-23T14:18:56;1.63;;;1.50;;
5153;SDS011;2595;53.584;10.084;2023-03-23T14:24:09;2.67;;;1.90;;
5153;SDS011;2595;53.584;10.084;2023-03-23T14:26:37;1.50;;;1.27;;
5153;SDS011;2595;53.584;10.084;2023-03-23T14:29:03;1.60;;;1.50;;
5153;SDS011;2595;53.584;10.084;2023-03-23T14:31:30;1.90;;;1.80;;
5153;SDS011;2595;53.584;10.084;2023-03-23T14:34:00;1.73;;;1.63;;
5153;SDS011;2595;53.584;10.084;2023-03-23T14:36:29;1.40;;;1.30;;
5153;SDS011;2595;53.584;10.084;2023-03-23T14:41:37;10.33;;;4.10;;
5153;SDS011;2595;53.584;10.084;2023-03-23T14:44:05;3.37;;;1.77;;
5153;SDS011;2595;53.584;10.084;2023-03-23T14:46:33;3.17;;;1.57;;
5153;SDS011;2595;53.584;10.084;2023-03-23T14:49:01;1.40;;;1.30;;
5153;SDS011;2595;53.584;10.084;2023-03-23T14:51:28;2.03;;;1.83;;
5153;SDS011;2595;53.584;10.084;2023-03-23T14:53:54;1.73;;;1.63;;
5153;SDS011;2595;53.584;10.084;2023-03-23T14:56:20;1.57;;;1.47;;
5153;SDS011;2595;53.584;10.084;2023-03-23T14:58:50;2.00;;;1.90;;
5153;SDS011;2595;53.584;10.084;2023-03-23T15:01:26;6.33;;;2.40;;
5153;SDS011;2595;53.584;10.084;2023-03-23T15:06:35;2.03;;;1.67;;
5153;SDS011;2595;53.584;10.084;2023-03-23T15:09:03;2.43;;;1.67;;
5153;SDS011;2595;53.584;10.084;2023-03-23T15:11:32;3.20;;;1.57;;
5153;SDS011;2595;53.584;10.084;2023-03-23T15:14:02;6.50;;;3.17;;
5153;SDS011;2595;53.584;10.084;2023-03-23T15:16:35;4.37;;;1.77;;
5153;SDS011;2595;53.584;10.084;2023-03-23T15:19:16;3.30;;;1.80;;
5153;SDS011;2595;53.584;10.084;2023-03-23T15:21:48;3.33;;;2.00;;
5153;SDS011;2595;53.584;10.084;2023-03-23T15:24:34;4.03;;;2.10;;
5153;SDS011;2595;53.584;10.084;2023-03-23T15:27:04;1.83;;;1.73;;
5153;SDS011;2595;53.584;10.084;2023-03-23T15:29:45;2.33;;;2.10;;
5153;SDS011;2595;53.584;10.084;2023-03-23T15:32:29;3.17;;;1.70;;
5153;SDS011;2595;53.584;10.084;2023-03-23T15:34:57;2.40;;;1.53;;
5153;SDS011;2595;53.584;10.084;2023-03-23T15:37:29;2.47;;;2.27;;
5153;SDS011;2595;53.584;10.084;2023-03-23T15:39:56;2.17;;;2.07;;
5153;SDS011;2595;53.584;10.084;2023-03-23T15:42:30;2.70;;;2.30;;
5153;SDS011;2595;53.584;10.084;2023-03-23T15:45:50;3.30;;;1.70;;
5153;SDS011;2595;53.584;10.084;2023-03-23T15:47:47;4.13;;;2.00;;
5153;SDS011;2595;53.584;10.084;2023-03-23T15:50:18;2.83;;;2.13;;
5153;SDS011;2595;53.584;10.084;2023-03-23T15:52:53;5.30;;;2.13;;
5153;SDS011;2595;53.584;10.084;2023-03-23T15:57:49;2.43;;;1.60;;
5153;SDS011;2595;53.584;10.084;2023-03-23T16:00:16;2.83;;;1.80;;
5153;SDS011;2595;53.584;10.084;2023-03-23T16:02:44;2.93;;;2.73;;
5153;SDS011;2595;53.584;10.084;2023-03-23T16:05:11;5.40;;;2.10;;
5153;SDS011;2595;53.584;10.084;2023-03-23T16:07:38;6.30;;;1.67;;
5153;SDS011;2595;53.584;10.084;2023-03-23T16:10:04;2.87;;;2.57;;
5153;SDS011;2595;53.584;10.084;2023-03-23T16:12:31;2.30;;;2.03;;
5153;SDS011;2595;53.584;10.084;2023-03-23T16:14:57;4.00;;;2.03;;
5153;SDS011;2595;53.584;10.084;2023-03-23T16:17:23;4.03;;;2.17;;
5153;SDS011;2595;53.584;10.084;2023-03-23T16:19:50;4.27;;;2.10;;
5153;SDS011;2595;53.584;10.084;2023-03-23T16:22:15;4.67;;;2.87;;
5153;SDS011;2595;53.584;10.084;2023-03-23T16:24:41;4.67;;;1.60;;
5153;SDS011;2595;53.584;10.084;2023-03-23T16:27:08;2.50;;;1.97;;
5153;SDS011;2595;53.584;10.084;2023-03-23T16:29:35;6.33;;;2.63;;
5153;SDS011;2595;53.584;10.084;2023-03-23T16:32:00;3.37;;;2.17;;
5153;SDS011;2595;53.584;10.084;2023-03-23T16:34:26;6.50;;;2.33;;
5153;SDS011;2595;53.584;10.084;2023-03-23T16:36:54;2.70;;;1.93;;
5153;SDS011;2595;53.584;10.084;2023-03-23T16:39:20;8.03;;;2.30;;
5153;SDS011;2595;53.584;10.084;2023-03-23T16:41:47;4.00;;;2.30;;
5153;SDS011;2595;53.584;10.084;2023-03-23T16:44:12;5.57;;;2.40;;
5153;SDS011;2595;53.584;10.084;2023-03-23T16:46:38;5.00;;;3.97;;
5153;SDS011;2595;53.584;10.084;2023-03-23T16:49:03;3.33;;;2.50;;
5153;SDS011;2595;53.584;10.084;2023-03-23T16:51:29;4.93;;;3.37;;
5153;SDS011;2595;53.584;10.084;2023-03-23T16:53:55;5.83;;;3.57;;
5153;SDS011;2595;53.584;10.084;2023-03-23T16:56:20;5.97;;;3.43;;
5153;SDS011;2595;53.584;10.084;2023-03-23T16:58:46;2.60;;;2.40;;
5153;SDS011;2595;53.584;10.084;2023-03-23T17:01:12;5.30;;;2.30;;
5153;SDS011;2595;53.584;10.084;2023-03-23T17:03:38;3.43;;;1.70;;
5153;SDS011;2595;53.584;10.084;2023-03-23T17:06:03;7.13;;;1.97;;
5153;SDS011;2595;53.584;10.084;2023-03-23T17:08:29;5.80;;;2.30;;
5153;SDS011;2595;53.584;10.084;2023-03-23T17:10:55;3.03;;;2.00;;
5153;SDS011;2595;53.584;10.084;2023-03-23T17:13:21;5.53;;;2.73;;
5153;SDS011;2595;53.584;10.084;2023-03-23T17:15:50;5.37;;;2.20;;
5153;SDS011;2595;53.584;10.084;2023-03-23T17:18:17;9.83;;;2.50;;
5153;SDS011;2595;53.584;10.084;2023-03-23T17:20:43;2.70;;;1.97;;
5153;SDS011;2595;53.584;10.084;2023-03-23T17:23:08;4.97;;;2.57;;
5153;SDS011;2595;53.584;10.084;2023-03-23T17:25:34;3.63;;;2.13;;
5153;SDS011;2595;53.584;10.084;2023-03-23T17:28:00;2.10;;;1.33;;